Time;durP1;ratioP1;P1;durP2;ratioP2;P2;SDS_P1;SDS_P2;PMS_P1;PMS_P2;Temp;Humidity;BMP_temperature;BMP_pressure;BME280_temperature;BME280_humidity;BME280_pressure;Samples;Min_cycle;Max_cycle;Signal;HPM_P1;HPM_P2
2022/12/07 00:01:18;;;;;;;2.40;1.10;;;;;;;;;;5025790;28;20221;-80
2022/12/07 00:03:47;;;;;;;1.10;1.10;;;;;;;;;;5055693;28;20284;-80
2022/12/07 00:06:18;;;;;;;7.00;1.43;;;;;;;;;;5055793;28;20293;-80
2022/12/07 00:08:46;;;;;;;0.70;0.70;;;;;;;;;;5039266;28;20214;-80
2022/12/07 00:11:15;;;;;;;0.70;0.70;;;;;;;;;;5037846;28;20212;-80
2022/12/07 00:13:44;;;;;;;0.70;0.70;;;;;;;;;;5065901;28;20241;-80
2022/12/07 00:16:13;;;;;;;0.70;0.70;;;;;;;;;;5058159;28;20284;-80
2022/12/07 00:18:42;;;;;;;0.70;0.70;;;;;;;;;;5057904;28;20217;-80
2022/12/07 00:21:11;;;;;;;0.70;0.70;;;;;;;;;;5058480;28;20284;-79
2022/12/07 00:23:42;;;;;;;3.20;2.40;;;;;;;;;;5057481;28;20233;-80
2022/12/07 00:26:11;;;;;;;0.70;0.70;;;;;;;;;;5058445;28;20296;-80
2022/12/07 00:28:39;;;;;;;0.87;0.87;;;;;;;;;;5058076;28;20253;-80
2022/12/07 00:31:09;;;;;;;0.70;0.70;;;;;;;;;;5057630;28;20201;-80
2022/12/07 00:33:38;;;;;;;0.70;0.70;;;;;;;;;;5075799;28;20345;-80
2022/12/07 00:36:07;;;;;;;0.70;0.70;;;;;;;;;;5076498;28;20193;-80
2022/12/07 00:38:36;;;;;;;0.70;0.70;;;;;;;;;;5052364;28;20302;-80
2022/12/07 00:41:07;;;;;;;0.70;0.70;;;;;;;;;;5049934;28;20341;-80
2022/12/07 00:43:35;;;;;;;5.83;1.67;;;;;;;;;;5051159;28;20254;-80
2022/12/07 00:46:04;;;;;;;2.67;1.60;;;;;;;;;;5050294;28;20248;-80
2022/12/07 00:48:32;;;;;;;3.47;1.83;;;;;;;;;;5044860;28;20193;-80
2022/12/07 00:51:01;;;;;;;1.30;1.03;;;;;;;;;;5044948;28;20199;-79
2022/12/07 00:53:30;;;;;;;0.90;0.90;;;;;;;;;;5063116;28;20201;-80
2022/12/07 00:56:07;;;;;;;0.70;0.70;;;;;;;;;;5075385;28;20284;-80
2022/12/07 00:58:36;;;;;;;0.80;0.80;;;;;;;;;;5075818;28;20255;-80
2022/12/07 01:01:05;;;;;;;1.53;0.90;;;;;;;;;;5057504;28;20206;-80
2022/12/07 01:03:34;;;;;;;2.13;1.60;;;;;;;;;;5057339;28;20248;-80
2022/12/07 01:06:02;;;;;;;0.70;0.70;;;;;;;;;;5058802;28;20202;-80
2022/12/07 01:08:30;;;;;;;0.70;0.70;;;;;;;;;;5048134;28;20297;-80
2022/12/07 01:11:00;;;;;;;0.70;0.70;;;;;;;;;;5075032;28;20233;-80
2022/12/07 01:13:30;;;;;;;2.50;2.50;;;;;;;;;;5057215;28;20377;-80
2022/12/07 01:15:59;;;;;;;0.70;0.70;;;;;;;;;;5044138;28;20262;-80
2022/12/07 01:18:28;;;;;;;0.70;0.70;;;;;;;;;;5057751;28;20225;-80
2022/12/07 01:21:00;;;;;;;0.70;0.70;;;;;;;;;;5061989;28;20252;-80
2022/12/07 01:23:29;;;;;;;0.70;0.70;;;;;;;;;;5044176;28;20216;-80
2022/12/07 01:25:57;;;;;;;0.70;0.70;;;;;;;;;;5038221;28;20187;-79
2022/12/07 01:28:26;;;;;;;0.70;0.70;;;;;;;;;;5038017;28;20199;-80
2022/12/07 01:31:00;;;;;;;0.70;0.70;;;;;;;;;;5037624;28;20190;-80
2022/12/07 01:33:29;;;;;;;0.70;0.70;;;;;;;;;;5052849;28;20206;-79
2022/12/07 01:36:02;;;;;;;0.70;0.70;;;;;;;;;;5047695;28;20198;-80
2022/12/07 01:38:31;;;;;;;0.70;0.70;;;;;;;;;;5055435;28;20214;-80
2022/12/07 01:40:59;;;;;;;1.00;1.00;;;;;;;;;;5065605;28;20193;-80
2022/12/07 01:43:29;;;;;;;4.53;0.87;;;;;;;;;;5074379;28;20293;-80
2022/12/07 01:45:57;;;;;;;0.80;0.80;;;;;;;;;;5074728;28;20204;-79
2022/12/07 01:48:29;;;;;;;0.90;0.90;;;;;;;;;;5069250;28;20201;-79
2022/12/07 01:50:58;;;;;;;0.70;0.70;;;;;;;;;;5049846;28;20201;-79
2022/12/07 01:53:30;;;;;;;1.33;1.30;;;;;;;;;;5050104;28;20202;-79
2022/12/07 01:56:02;;;;;;;1.67;1.57;;;;;;;;;;5050452;28;20208;-79
2022/12/07 01:58:30;;;;;;;2.23;1.30;;;;;;;;;;5056677;28;20265;-79
2022/12/07 02:00:59;;;;;;;0.70;0.70;;;;;;;;;;5059915;28;20190;-79
2022/12/07 02:03:31;;;;;;;0.80;0.80;;;;;;;;;;5063645;28;20228;-79
2022/12/07 02:06:00;;;;;;;0.80;0.80;;;;;;;;;;5043272;28;20209;-79
2022/12/07 02:08:28;;;;;;;1.27;1.20;;;;;;;;;;5056813;28;20265;-79
2022/12/07 02:10:56;;;;;;;2.53;1.47;;;;;;;;;;5070587;28;20267;-79
2022/12/07 02:13:26;;;;;;;1.27;0.80;;;;;;;;;;5047003;28;20324;-79
2022/12/07 02:16:02;;;;;;;1.30;0.80;;;;;;;;;;5055934;28;20239;-79
2022/12/07 02:18:36;;;;;;;0.60;0.60;;;;;;;;;;5056173;28;20193;-79
2022/12/07 02:21:09;;;;;;;0.70;0.70;;;;;;;;;;5043758;28;20288;-79
2022/12/07 02:23:51;;;;;;;0.70;0.70;;;;;;;;;;5054913;28;20284;-79
2022/12/07 02:26:40;;;;;;;0.87;0.87;;;;;;;;;;5064417;28;20272;-79
2022/12/07 02:29:15;;;;;;;0.60;0.60;;;;;;;;;;5060738;28;20196;-79
2022/12/07 02:31:46;;;;;;;0.60;0.60;;;;;;;;;;5073703;28;20201;-79
2022/12/07 02:34:17;;;;;;;0.60;0.60;;;;;;;;;;5056102;28;20277;-79
2022/12/07 02:36:48;;;;;;;0.90;0.90;;;;;;;;;;5073161;28;20296;-79
2022/12/07 02:39:18;;;;;;;2.63;1.43;;;;;;;;;;5073194;28;20206;-79
2022/12/07 02:41:49;;;;;;;1.00;1.00;;;;;;;;;;5042739;28;20198;-79
2022/12/07 02:44:21;;;;;;;1.13;1.13;;;;;;;;;;5044846;28;20290;-79
2022/12/07 02:46:52;;;;;;;8.03;2.00;;;;;;;;;;5054282;28;20244;-79
2022/12/07 02:49:23;;;;;;;0.80;0.80;;;;;;;;;;5043394;28;20285;-80
2022/12/07 02:51:51;;;;;;;2.97;1.63;;;;;;;;;;5035874;28;20272;-79
2022/12/07 02:54:20;;;;;;;3.13;2.40;;;;;;;;;;5037283;28;20230;-80
2022/12/07 02:56:50;;;;;;;5.77;0.80;;;;;;;;;;5036502;28;20288;-80
2022/12/07 02:59:26;;;;;;;1.27;1.17;;;;;;;;;;5038515;28;20254;-80
2022/12/07 03:02:00;;;;;;;0.97;0.97;;;;;;;;;;5072556;28;20209;-80
2022/12/07 03:04:34;;;;;;;2.90;1.07;;;;;;;;;;5050641;28;20221;-80
2022/12/07 03:07:06;;;;;;;0.70;0.70;;;;;;;;;;5053246;28;20213;-80
2022/12/07 03:09:37;;;;;;;0.80;0.80;;;;;;;;;;5036803;28;20213;-80
2022/12/07 03:12:12;;;;;;;0.73;0.73;;;;;;;;;;5054715;28;20265;-80
2022/12/07 03:14:43;;;;;;;1.50;0.80;;;;;;;;;;5035544;28;20233;-80
2022/12/07 03:17:14;;;;;;;0.60;0.60;;;;;;;;;;5037020;28;20255;-80
2022/12/07 03:19:44;;;;;;;1.10;1.10;;;;;;;;;;5036378;28;20214;-80
2022/12/07 03:22:13;;;;;;;0.70;0.70;;;;;;;;;;5053917;28;20216;-80
2022/12/07 03:24:43;;;;;;;0.70;0.70;;;;;;;;;;5045885;28;20193;-80
2022/12/07 03:27:15;;;;;;;3.10;1.30;;;;;;;;;;5054988;28;20280;-80
2022/12/07 03:29:47;;;;;;;0.83;0.83;;;;;;;;;;5061374;28;20277;-80
2022/12/07 03:32:17;;;;;;;2.03;1.63;;;;;;;;;;5036518;28;20209;-80
2022/12/07 03:34:47;;;;;;;2.23;1.47;;;;;;;;;;5036481;28;20293;-80
2022/12/07 03:37:18;;;;;;;1.40;1.37;;;;;;;;;;5043070;28;20267;-81
2022/12/07 03:39:48;;;;;;;2.23;1.30;;;;;;;;;;5071052;28;20252;-80
2022/12/07 03:42:16;;;;;;;7.23;1.20;;;;;;;;;;5035873;28;20194;-81
2022/12/07 03:44:46;;;;;;;1.83;1.73;;;;;;;;;;5055446;28;20312;-81
2022/12/07 03:47:17;;;;;;;0.70;0.70;;;;;;;;;;5040296;28;20276;-81
2022/12/07 03:49:47;;;;;;;0.60;0.60;;;;;;;;;;5052516;28;20289;-80
2022/12/07 03:52:20;;;;;;;0.60;0.60;;;;;;;;;;5043305;28;20202;-80
2022/12/07 03:54:51;;;;;;;0.70;0.70;;;;;;;;;;5050431;28;20298;-80
2022/12/07 03:57:20;;;;;;;0.70;0.70;;;;;;;;;;5050032;28;20206;-81
2022/12/07 03:59:50;;;;;;;1.40;1.30;;;;;;;;;;5064426;28;20320;-81
2022/12/07 04:02:18;;;;;;;3.90;2.97;;;;;;;;;;5037507;28;20246;-80
2022/12/07 04:04:46;;;;;;;3.20;2.60;;;;;;;;;;5061935;28;20245;-81
2022/12/07 04:07:15;;;;;;;0.70;0.70;;;;;;;;;;5042167;28;20209;-81
2022/12/07 04:09:43;;;;;;;0.70;0.70;;;;;;;;;;5065942;28;20290;-81
2022/12/07 04:12:11;;;;;;;0.70;0.70;;;;;;;;;;5065770;28;20233;-81
2022/12/07 04:14:40;;;;;;;0.70;0.70;;;;;;;;;;5042058;28;20320;-81
2022/12/07 04:17:10;;;;;;;0.60;0.60;;;;;;;;;;5072110;28;20198;-81
2022/12/07 04:19:38;;;;;;;0.63;0.63;;;;;;;;;;5057251;28;20235;-81
2022/12/07 04:22:06;;;;;;;0.80;0.80;;;;;;;;;;5040090;28;20222;-81
2022/12/07 04:24:35;;;;;;;1.00;1.00;;;;;;;;;;5038624;28;20194;-82
2022/12/07 04:27:04;;;;;;;1.07;0.97;;;;;;;;;;5038269;28;20199;-81
2022/12/07 04:29:32;;;;;;;0.60;0.60;;;;;;;;;;5040780;28;20207;-81
2022/12/07 04:32:00;;;;;;;1.17;1.13;;;;;;;;;;5048779;28;20200;-81
2022/12/07 04:34:30;;;;;;;3.10;1.87;;;;;;;;;;5059881;28;20224;-80
2022/12/07 04:36:58;;;;;;;4.43;1.23;;;;;;;;;;5048100;28;20234;-80
2022/12/07 04:39:28;;;;;;;12.07;1.93;;;;;;;;;;5042574;28;20280;-79
2022/12/07 04:41:56;;;;;;;3.40;1.00;;;;;;;;;;5057973;28;20235;-79
2022/12/07 04:44:25;;;;;;;0.70;0.70;;;;;;;;;;5075828;28;20194;-80
2022/12/07 04:46:54;;;;;;;0.90;0.90;;;;;;;;;;5045962;28;20281;-79
2022/12/07 04:49:22;;;;;;;0.60;0.60;;;;;;;;;;5057602;28;20216;-80
2022/12/07 04:51:52;;;;;;;0.60;0.60;;;;;;;;;;5062740;28;20226;-80
2022/12/07 04:54:20;;;;;;;0.60;0.60;;;;;;;;;;5042545;28;20202;-80
2022/12/07 04:56:49;;;;;;;0.60;0.60;;;;;;;;;;5068814;28;20213;-80
2022/12/07 04:59:18;;;;;;;0.90;0.90;;;;;;;;;;5044829;28;20202;-80
2022/12/07 05:01:46;;;;;;;3.47;1.40;;;;;;;;;;5074667;28;20210;-80
2022/12/07 05:04:15;;;;;;;1.23;1.17;;;;;;;;;;5063092;28;20233;-80
2022/12/07 05:06:44;;;;;;;3.20;1.83;;;;;;;;;;5056313;28;20201;-80
2022/12/07 05:09:13;;;;;;;2.60;2.40;;;;;;;;;;5037769;28;20198;-80
2022/12/07 05:11:43;;;;;;;2.10;0.80;;;;;;;;;;5053413;28;20205;-80
2022/12/07 05:14:13;;;;;;;0.90;0.90;;;;;;;;;;5057660;28;20312;-80
2022/12/07 05:16:43;;;;;;;2.33;1.20;;;;;;;;;;5044273;28;20194;-80
2022/12/07 05:19:11;;;;;;;0.90;0.90;;;;;;;;;;5047069;28;20202;-80
2022/12/07 05:21:40;;;;;;;0.70;0.70;;;;;;;;;;5072665;28;20244;-80
2022/12/07 05:24:09;;;;;;;0.70;0.70;;;;;;;;;;5075008;28;20293;-80
2022/12/07 05:26:39;;;;;;;0.60;0.60;;;;;;;;;;5057300;28;20190;-80
2022/12/07 05:29:07;;;;;;;0.70;0.70;;;;;;;;;;5057381;28;20213;-80
2022/12/07 05:31:35;;;;;;;0.70;0.70;;;;;;;;;;5073728;28;20205;-79
2022/12/07 05:34:04;;;;;;;0.70;0.70;;;;;;;;;;5074857;28;20281;-80
2022/12/07 05:36:32;;;;;;;0.70;0.70;;;;;;;;;;5043680;28;20198;-80
2022/12/07 05:39:00;;;;;;;0.70;0.70;;;;;;;;;;5056572;28;20288;-80
2022/12/07 05:44:16;;;;;;;0.70;0.70;;;;;;;;;;5070918;28;20206;-80
2022/12/07 05:46:44;;;;;;;0.70;0.70;;;;;;;;;;5046067;28;20201;-80
2022/12/07 05:49:12;;;;;;;0.60;0.60;;;;;;;;;;5059870;28;20204;-80
2022/12/07 05:51:41;;;;;;;0.67;0.67;;;;;;;;;;5045264;28;20187;-80
2022/12/07 05:54:09;;;;;;;0.87;0.87;;;;;;;;;;5054214;28;20201;-80
2022/12/07 05:56:37;;;;;;;0.70;0.70;;;;;;;;;;5066145;28;20202;-79
2022/12/07 05:59:27;;;;;;;0.70;0.70;;;;;;;;;;5056252;28;20203;-82
2022/12/07 06:01:58;;;;;;;0.60;0.60;;;;;;;;;;5056073;28;20241;-80
2022/12/07 06:04:27;;;;;;;0.80;0.80;;;;;;;;;;5047576;28;20250;-81
2022/12/07 06:06:56;;;;;;;2.23;1.20;;;;;;;;;;5052866;28;20282;-81
2022/12/07 06:09:25;;;;;;;0.73;0.73;;;;;;;;;;5046972;28;20209;-81
2022/12/07 06:14:40;;;;;;;0.80;0.80;;;;;;;;;;5043245;28;20415;-80
2022/12/07 06:17:09;;;;;;;0.70;0.70;;;;;;;;;;5073722;28;20198;-81
2022/12/07 06:19:38;;;;;;;7.10;1.13;;;;;;;;;;5072589;28;20202;-81
2022/12/07 06:22:07;;;;;;;0.70;0.70;;;;;;;;;;5066523;28;20215;-81
2022/12/07 06:24:35;;;;;;;0.70;0.70;;;;;;;;;;5055795;28;20255;-82
2022/12/07 06:27:04;;;;;;;1.97;1.87;;;;;;;;;;5048145;28;20479;-81
2022/12/07 06:29:32;;;;;;;0.60;0.60;;;;;;;;;;5051669;28;20205;-81
2022/12/07 06:32:00;;;;;;;0.70;0.70;;;;;;;;;;5055129;28;20253;-81
2022/12/07 06:34:30;;;;;;;0.70;0.70;;;;;;;;;;5054913;28;20263;-82
2022/12/07 06:36:58;;;;;;;0.70;0.70;;;;;;;;;;5055593;28;20236;-81
2022/12/07 06:39:28;;;;;;;0.70;0.70;;;;;;;;;;5054370;28;20288;-82
2022/12/07 06:41:56;;;;;;;0.70;0.70;;;;;;;;;;5056021;28;20279;-82
2022/12/07 06:44:25;;;;;;;0.70;0.70;;;;;;;;;;5053803;28;20225;-82
2022/12/07 06:46:53;;;;;;;0.70;0.70;;;;;;;;;;5055083;28;20232;-82
2022/12/07 06:49:43;;;;;;;0.90;0.90;;;;;;;;;;5055502;28;20212;-79
2022/12/07 06:52:11;;;;;;;1.63;1.20;;;;;;;;;;5055059;28;20231;-80
2022/12/07 06:54:39;;;;;;;0.70;0.70;;;;;;;;;;5055655;28;20198;-82
2022/12/07 06:57:08;;;;;;;0.70;0.70;;;;;;;;;;5055484;28;20320;-81
2022/12/07 06:59:36;;;;;;;0.70;0.70;;;;;;;;;;5064134;28;20206;-82
2022/12/07 07:02:04;;;;;;;1.53;1.53;;;;;;;;;;5038361;28;20222;-82
2022/12/07 07:04:33;;;;;;;0.70;0.70;;;;;;;;;;5055755;28;20232;-81
2022/12/07 07:07:03;;;;;;;0.70;0.70;;;;;;;;;;5055149;28;20194;-82
2022/12/07 07:09:31;;;;;;;3.70;1.73;;;;;;;;;;5055708;28;20202;-82
2022/12/07 07:12:00;;;;;;;3.43;1.60;;;;;;;;;;5054981;28;20198;-81
2022/12/07 07:14:28;;;;;;;1.93;1.80;;;;;;;;;;5055275;28;20241;-80
2022/12/07 07:16:56;;;;;;;0.90;0.90;;;;;;;;;;5041820;28;20186;-80
2022/12/07 07:19:25;;;;;;;1.70;1.10;;;;;;;;;;5042986;28;20202;-80
2022/12/07 07:21:53;;;;;;;1.93;1.43;;;;;;;;;;5041968;28;20220;-80
2022/12/07 07:24:23;;;;;;;4.33;1.13;;;;;;;;;;5073026;28;20282;-80
2022/12/07 07:26:51;;;;;;;1.20;1.20;;;;;;;;;;5059412;28;20201;-79
2022/12/07 07:29:19;;;;;;;0.73;0.73;;;;;;;;;;5041671;28;20260;-79
2022/12/07 07:31:48;;;;;;;0.70;0.70;;;;;;;;;;5043024;28;20198;-80
2022/12/07 07:34:16;;;;;;;0.60;0.60;;;;;;;;;;5040502;28;20290;-80
2022/12/07 07:36:44;;;;;;;0.70;0.70;;;;;;;;;;5044887;28;20224;-80
2022/12/07 07:39:13;;;;;;;0.70;0.70;;;;;;;;;;5039485;28;20229;-81
2022/12/07 07:41:43;;;;;;;1.10;1.10;;;;;;;;;;5052979;28;20222;-81
2022/12/07 07:44:11;;;;;;;1.47;1.37;;;;;;;;;;5052417;28;20205;-81
2022/12/07 07:46:39;;;;;;;1.43;1.33;;;;;;;;;;5062533;28;20202;-80
2022/12/07 07:49:08;;;;;;;0.70;0.70;;;;;;;;;;5035536;28;20198;-81
2022/12/07 07:51:36;;;;;;;3.50;1.53;;;;;;;;;;5046942;28;20204;-81
2022/12/07 07:54:05;;;;;;;0.80;0.80;;;;;;;;;;5070046;28;20229;-81
2022/12/07 07:56:34;;;;;;;0.70;0.70;;;;;;;;;;5048405;28;20262;-81
2022/12/07 07:59:03;;;;;;;0.70;0.70;;;;;;;;;;5048995;28;20202;-80
2022/12/07 08:01:32;;;;;;;0.60;0.60;;;;;;;;;;5068198;28;20289;-80
2022/12/07 08:04:01;;;;;;;0.70;0.70;;;;;;;;;;5051610;28;20276;-80
2022/12/07 08:06:29;;;;;;;1.70;1.00;;;;;;;;;;5064160;28;20232;-80
2022/12/07 08:09:00;;;;;;;4.53;1.83;;;;;;;;;;5047846;28;20255;-80
2022/12/07 08:11:28;;;;;;;5.13;2.37;;;;;;;;;;5053260;28;20194;-80
2022/12/07 08:13:57;;;;;;;0.83;0.83;;;;;;;;;;5066892;28;20283;-80
2022/12/07 08:16:26;;;;;;;11.13;2.47;;;;;;;;;;5050641;28;20197;-80
2022/12/07 08:18:56;;;;;;;6.17;1.80;;;;;;;;;;5070666;28;20198;-80
2022/12/07 08:21:24;;;;;;;2.20;0.80;;;;;;;;;;5051403;28;20236;-81
2022/12/07 08:23:52;;;;;;;0.73;0.73;;;;;;;;;;5051773;28;20217;-80
2022/12/07 08:26:21;;;;;;;0.90;0.90;;;;;;;;;;5051192;28;20210;-80
2022/12/07 08:28:49;;;;;;;0.70;0.70;;;;;;;;;;5045085;28;20261;-80
2022/12/07 08:31:19;;;;;;;1.13;1.13;;;;;;;;;;5060906;28;20230;-81
2022/12/07 08:33:49;;;;;;;1.23;1.23;;;;;;;;;;5055330;28;20189;-80
2022/12/07 08:36:17;;;;;;;0.80;0.80;;;;;;;;;;5071765;28;20300;-76
2022/12/07 08:38:46;;;;;;;0.70;0.70;;;;;;;;;;5071203;28;20296;-77
2022/12/07 08:41:34;;;;;;;1.03;0.90;;;;;;;;;;5049111;28;20205;-80
2022/12/07 08:44:03;;;;;;;0.67;0.67;;;;;;;;;;5048313;28;20249;-81
2022/12/07 08:46:34;;;;;;;1.07;0.97;;;;;;;;;;5049958;28;20228;-80
2022/12/07 08:49:06;;;;;;;0.60;0.60;;;;;;;;;;5047343;28;20522;-80
2022/12/07 08:51:34;;;;;;;0.90;0.90;;;;;;;;;;5046357;28;20211;-80
2022/12/07 08:54:08;;;;;;;3.60;1.43;;;;;;;;;;5051897;28;20260;-80
2022/12/07 08:56:37;;;;;;;0.60;0.60;;;;;;;;;;5045474;28;20202;-80
2022/12/07 08:59:06;;;;;;;0.60;0.60;;;;;;;;;;5047971;28;20240;-80
2022/12/07 09:01:35;;;;;;;0.60;0.60;;;;;;;;;;5073705;28;20272;-80
2022/12/07 09:04:07;;;;;;;0.60;0.60;;;;;;;;;;5070782;28;20293;-80
2022/12/07 09:06:35;;;;;;;0.60;0.60;;;;;;;;;;5054738;28;20202;-80
2022/12/07 09:09:06;;;;;;;0.70;0.70;;;;;;;;;;5062525;28;20194;-80
2022/12/07 09:11:34;;;;;;;1.43;1.33;;;;;;;;;;5068904;28;20194;-82
2022/12/07 09:14:03;;;;;;;0.60;0.60;;;;;;;;;;5056591;28;20229;-82
2022/12/07 09:16:31;;;;;;;0.70;0.70;;;;;;;;;;5056975;28;20209;-90
2022/12/07 09:19:00;;;;;;;0.60;0.60;;;;;;;;;;5052728;28;20226;-90
2022/12/07 09:21:30;;;;;;;0.60;0.60;;;;;;;;;;5067713;28;20285;-90
2022/12/07 09:23:58;;;;;;;3.80;3.43;;;;;;;;;;5053969;28;20305;-85
2022/12/07 09:26:26;;;;;;;0.50;0.50;;;;;;;;;;5065388;28;20202;-87
2022/12/07 09:28:55;;;;;;;7.90;3.40;;;;;;;;;;5044330;28;20194;-85
2022/12/07 09:31:23;;;;;;;0.70;0.70;;;;;;;;;;5063748;28;20202;-85
2022/12/07 09:33:57;;;;;;;2.33;1.03;;;;;;;;;;5052847;28;20220;-83
2022/12/07 09:36:25;;;;;;;2.50;2.40;;;;;;;;;;5045206;28;20328;-82
2022/12/07 09:38:55;;;;;;;5.00;1.80;;;;;;;;;;5042653;28;20301;-82
2022/12/07 09:41:26;;;;;;;10.83;1.53;;;;;;;;;;5065384;28;20195;-84
2022/12/07 09:43:55;;;;;;;1.27;0.80;;;;;;;;;;5050114;28;20230;-84
2022/12/07 09:46:23;;;;;;;0.60;0.60;;;;;;;;;;5049259;28;20213;-84
2022/12/07 09:48:54;;;;;;;10.57;1.13;;;;;;;;;;5058851;28;20202;-88
2022/12/07 09:51:28;;;;;;;0.73;0.73;;;;;;;;;;5044974;28;20449;-85
2022/12/07 09:54:00;;;;;;;0.50;0.50;;;;;;;;;;5041314;28;20450;-88
2022/12/07 09:56:31;;;;;;;0.60;0.60;;;;;;;;;;5050911;28;20206;-83
2022/12/07 09:59:01;;;;;;;0.60;0.60;;;;;;;;;;5058029;28;20213;-79
2022/12/07 10:01:31;;;;;;;0.60;0.60;;;;;;;;;;5039824;28;20216;-81
2022/12/07 10:04:03;;;;;;;0.70;0.70;;;;;;;;;;5043057;28;20290;-84
2022/12/07 10:06:32;;;;;;;0.63;0.63;;;;;;;;;;5043949;28;20207;-84
2022/12/07 10:09:03;;;;;;;0.60;0.60;;;;;;;;;;5040211;28;20206;-86
2022/12/07 10:11:32;;;;;;;1.27;1.27;;;;;;;;;;5058289;28;20211;-82
2022/12/07 10:14:13;;;;;;;2.43;1.33;;;;;;;;;;5058390;28;20226;-82
2022/12/07 10:16:43;;;;;;;0.60;0.60;;;;;;;;;;5054322;28;20289;-84
2022/12/07 10:19:24;;;;;;;0.80;0.80;;;;;;;;;;5039290;28;20266;-83
2022/12/07 10:22:06;;;;;;;1.20;1.17;;;;;;;;;;5041275;28;20206;-84
2022/12/07 10:24:37;;;;;;;0.90;0.90;;;;;;;;;;5041573;28;20217;-83
2022/12/07 10:27:07;;;;;;;0.73;0.73;;;;;;;;;;5044532;28;20197;-83
2022/12/07 10:29:37;;;;;;;2.20;1.27;;;;;;;;;;5045173;28;20200;-84
2022/12/07 10:32:07;;;;;;;2.50;2.37;;;;;;;;;;5042776;28;20225;-84
2022/12/07 10:34:39;;;;;;;2.70;2.60;;;;;;;;;;5044284;28;20199;-85
2022/12/07 10:37:17;;;;;;;13.20;2.10;;;;;;;;;;5042722;28;20220;-85
2022/12/07 10:39:48;;;;;;;5.73;2.47;;;;;;;;;;5057865;28;20351;-84
2022/12/07 10:42:18;;;;;;;3.20;1.57;;;;;;;;;;5057865;28;20217;-86
2022/12/07 10:44:47;;;;;;;1.87;0.90;;;;;;;;;;5044161;28;20217;-86
2022/12/07 10:47:23;;;;;;;2.30;1.90;;;;;;;;;;5058490;28;20206;-86
2022/12/07 10:50:10;;;;;;;0.70;0.70;;;;;;;;;;5043393;28;20224;-87
2022/12/07 10:52:46;;;;;;;6.27;2.00;;;;;;;;;;5055512;28;20231;-87
2022/12/07 10:55:22;;;;;;;0.83;0.83;;;;;;;;;;5042072;28;20190;-88
2022/12/07 10:58:00;;;;;;;3.60;1.00;;;;;;;;;;5043690;28;20201;-86
2022/12/07 11:00:32;;;;;;;4.10;1.87;;;;;;;;;;5045616;28;20197;-87
2022/12/07 11:03:08;;;;;;;0.70;0.70;;;;;;;;;;5045895;28;20221;-87
2022/12/07 11:05:41;;;;;;;4.93;1.43;;;;;;;;;;5065952;28;20287;-88
2022/12/07 11:08:15;;;;;;;2.43;1.57;;;;;;;;;;5044770;28;20229;-84
2022/12/07 11:10:47;;;;;;;3.50;2.60;;;;;;;;;;5042682;28;20279;-86
2022/12/07 11:13:25;;;;;;;1.90;1.57;;;;;;;;;;5038588;28;20205;-84
2022/12/07 11:16:04;;;;;;;1.83;1.27;;;;;;;;;;5061517;28;20327;-83
2022/12/07 11:18:37;;;;;;;3.27;1.47;;;;;;;;;;5062409;28;20204;-81
2022/12/07 11:21:09;;;;;;;5.57;1.83;;;;;;;;;;5049859;28;20274;-83
2022/12/07 11:23:46;;;;;;;6.13;2.73;;;;;;;;;;5048595;28;20214;-83
2022/12/07 11:26:19;;;;;;;1.17;1.07;;;;;;;;;;5043838;28;20197;-83
2022/12/07 11:29:01;;;;;;;0.60;0.60;;;;;;;;;;5061820;28;20230;-87
2022/12/07 11:31:31;;;;;;;0.60;0.60;;;;;;;;;;5044205;28;20189;-85
2022/12/07 11:34:04;;;;;;;0.90;0.90;;;;;;;;;;5039875;28;20198;-85
2022/12/07 11:36:38;;;;;;;1.30;0.77;;;;;;;;;;5043316;28;21854;-84
2022/12/07 11:39:13;;;;;;;0.50;0.50;;;;;;;;;;5060402;28;20205;-83
2022/12/07 11:41:43;;;;;;;1.87;0.80;;;;;;;;;;5046594;28;20210;-84
2022/12/07 11:44:19;;;;;;;0.60;0.60;;;;;;;;;;5061485;28;20252;-84
2022/12/07 11:46:59;;;;;;;0.93;0.93;;;;;;;;;;5043749;28;20232;-83
2022/12/07 11:49:39;;;;;;;0.60;0.60;;;;;;;;;;5048319;28;20199;-83
2022/12/07 11:52:11;;;;;;;1.20;1.20;;;;;;;;;;5047761;28;20260;-84
2022/12/07 11:54:42;;;;;;;0.73;0.73;;;;;;;;;;5044880;28;20199;-83
2022/12/07 11:57:16;;;;;;;2.00;1.10;;;;;;;;;;5058197;28;20312;-83
2022/12/07 11:59:50;;;;;;;0.70;0.70;;;;;;;;;;5044058;28;20199;-82
2022/12/07 12:02:20;;;;;;;0.90;0.90;;;;;;;;;;5041815;28;20211;-80
2022/12/07 12:04:52;;;;;;;9.63;1.83;;;;;;;;;;5042765;28;20219;-80
2022/12/07 12:07:22;;;;;;;0.70;0.70;;;;;;;;;;5045337;28;20226;-84
2022/12/07 12:10:17;;;;;;;1.00;0.77;;;;;;;;;;5041927;28;20279;-83
2022/12/07 12:13:09;;;;;;;0.80;0.80;;;;;;;;;;5067001;28;20207;-82
2022/12/07 12:16:07;;;;;;;0.87;0.87;;;;;;;;;;5035209;28;20245;-82
2022/12/07 12:18:41;;;;;;;1.10;1.10;;;;;;;;;;5047483;28;20207;-81
2022/12/07 12:21:11;;;;;;;0.90;0.90;;;;;;;;;;5054339;28;20216;-80
2022/12/07 12:23:43;;;;;;;8.70;1.63;;;;;;;;;;5044711;28;20207;-81
2022/12/07 12:26:16;;;;;;;2.77;1.27;;;;;;;;;;5042346;28;20204;-82
2022/12/07 12:28:52;;;;;;;5.57;1.37;;;;;;;;;;5048555;28;20236;-83
2022/12/07 12:31:35;;;;;;;1.60;1.30;;;;;;;;;;5042090;28;20196;-81
2022/12/07 12:34:05;;;;;;;0.63;0.63;;;;;;;;;;5045910;28;20208;-82
2022/12/07 12:36:48;;;;;;;0.60;0.60;;;;;;;;;;5060707;28;20219;-81
2022/12/07 12:39:18;;;;;;;0.80;0.80;;;;;;;;;;5040510;28;20217;-82
2022/12/07 12:45:04;;;;;;;2.87;1.00;;;;;;;;;;5041305;28;20236;-82
2022/12/07 12:47:56;;;;;;;2.73;1.50;;;;;;;;;;5047719;28;21091;-82
2022/12/07 12:50:28;;;;;;;0.60;0.60;;;;;;;;;;5022277;28;20936;-83
2022/12/07 12:53:14;;;;;;;2.67;2.03;;;;;;;;;;5044195;28;20204;-83
2022/12/07 12:55:52;;;;;;;1.23;1.13;;;;;;;;;;5064098;28;20201;-81
2022/12/07 12:58:38;;;;;;;2.90;1.40;;;;;;;;;;5045869;28;20207;-83
2022/12/07 13:01:27;;;;;;;0.60;0.60;;;;;;;;;;5047662;28;20259;-83
2022/12/07 13:03:56;;;;;;;0.90;0.90;;;;;;;;;;5050482;28;20225;-84
2022/12/07 13:06:38;;;;;;;5.83;0.90;;;;;;;;;;5050668;28;20228;-84
2022/12/07 13:09:17;;;;;;;2.10;1.10;;;;;;;;;;5044114;28;20245;-80
2022/12/07 13:11:47;;;;;;;3.50;1.40;;;;;;;;;;5045828;28;20274;-81
2022/12/07 13:14:34;;;;;;;2.00;0.80;;;;;;;;;;5047132;28;20306;-81
2022/12/07 13:17:02;;;;;;;1.67;0.93;;;;;;;;;;5059085;28;20195;-80
2022/12/07 13:20:01;;;;;;;2.27;1.40;;;;;;;;;;5066045;28;20285;-83
2022/12/07 13:22:40;;;;;;;2.27;1.00;;;;;;;;;;5052143;28;20226;-83
2022/12/07 13:25:11;;;;;;;6.93;1.60;;;;;;;;;;5045507;28;20221;-84
2022/12/07 13:27:42;;;;;;;4.23;1.40;;;;;;;;;;5064985;28;20208;-83
2022/12/07 13:30:15;;;;;;;5.30;1.37;;;;;;;;;;5065852;28;20204;-82
2022/12/07 13:32:52;;;;;;;2.33;1.13;;;;;;;;;;5047010;28;20223;-82
2022/12/07 13:35:34;;;;;;;2.60;1.10;;;;;;;;;;5043522;28;20201;-83
2022/12/07 13:38:07;;;;;;;5.67;1.40;;;;;;;;;;5046794;28;20219;-84
2022/12/07 13:40:35;;;;;;;2.60;1.03;;;;;;;;;;5047114;28;20204;-82
2022/12/07 13:43:06;;;;;;;0.87;0.87;;;;;;;;;;5048126;28;20204;-82
2022/12/07 13:45:51;;;;;;;2.23;1.47;;;;;;;;;;5041859;28;20224;-83
2022/12/07 13:48:23;;;;;;;1.70;1.23;;;;;;;;;;5044087;28;20210;-80
2022/12/07 13:50:56;;;;;;;0.70;0.70;;;;;;;;;;5045697;28;20211;-81
2022/12/07 13:53:29;;;;;;;0.73;0.73;;;;;;;;;;5061329;28;20213;-82
2022/12/07 13:55:59;;;;;;;0.60;0.60;;;;;;;;;;5045297;28;20210;-82
2022/12/07 13:58:28;;;;;;;0.63;0.63;;;;;;;;;;5063466;28;20214;-82
2022/12/07 14:00:58;;;;;;;0.63;0.63;;;;;;;;;;5040122;28;20199;-83
2022/12/07 14:03:31;;;;;;;0.70;0.70;;;;;;;;;;5043468;28;20227;-82
2022/12/07 14:06:08;;;;;;;0.60;0.60;;;;;;;;;;5045622;28;20218;-83
2022/12/07 14:08:40;;;;;;;4.30;1.10;;;;;;;;;;5043758;28;20215;-82
2022/12/07 14:11:10;;;;;;;0.80;0.80;;;;;;;;;;5046751;28;20203;-82
2022/12/07 14:13:40;;;;;;;0.70;0.70;;;;;;;;;;5058203;28;20229;-82
2022/12/07 14:16:22;;;;;;;0.70;0.70;;;;;;;;;;5044820;28;20305;-81
2022/12/07 14:18:51;;;;;;;0.70;0.70;;;;;;;;;;5065814;28;20203;-81
2022/12/07 14:21:22;;;;;;;0.77;0.70;;;;;;;;;;5039733;28;20207;-82
2022/12/07 14:24:05;;;;;;;0.60;0.60;;;;;;;;;;5047177;28;20199;-83
2022/12/07 14:26:35;;;;;;;2.03;0.80;;;;;;;;;;5047012;28;20321;-83
2022/12/07 14:29:19;;;;;;;0.60;0.60;;;;;;;;;;5043151;28;20204;-85
2022/12/07 14:31:47;;;;;;;0.90;0.90;;;;;;;;;;5047034;28;20212;-84
2022/12/07 14:34:16;;;;;;;12.73;1.03;;;;;;;;;;5045094;28;20223;-83
2022/12/07 14:36:44;;;;;;;5.63;1.33;;;;;;;;;;5046226;28;20202;-83
2022/12/07 14:39:13;;;;;;;1.93;1.83;;;;;;;;;;5047188;28;20211;-84
2022/12/07 14:41:52;;;;;;;1.17;1.07;;;;;;;;;;5046092;28;20194;-86
2022/12/07 14:44:22;;;;;;;5.33;1.77;;;;;;;;;;5047224;28;20210;-83
2022/12/07 14:46:59;;;;;;;14.53;1.63;;;;;;;;;;5067701;28;20285;-85
2022/12/07 14:49:47;;;;;;;1.20;1.20;;;;;;;;;;5049098;28;20204;-82
2022/12/07 14:52:18;;;;;;;1.20;1.17;;;;;;;;;;5061183;28;20211;-84
2022/12/07 14:55:07;;;;;;;1.70;0.80;;;;;;;;;;5064270;28;20285;-85
2022/12/07 14:57:37;;;;;;;12.00;1.70;;;;;;;;;;5047527;28;20200;-81
2022/12/07 15:00:07;;;;;;;3.97;0.93;;;;;;;;;;5044438;28;20207;-80
2022/12/07 15:02:35;;;;;;;1.00;1.00;;;;;;;;;;5047814;28;20206;-80
2022/12/07 15:05:04;;;;;;;0.80;0.80;;;;;;;;;;5047025;28;20222;-79
2022/12/07 15:07:38;;;;;;;0.60;0.60;;;;;;;;;;5041770;28;20239;-79
2022/12/07 15:10:07;;;;;;;0.70;0.70;;;;;;;;;;5045889;28;20222;-80
2022/12/07 15:12:37;;;;;;;2.57;1.03;;;;;;;;;;5040292;28;20197;-80
2022/12/07 15:15:06;;;;;;;0.63;0.63;;;;;;;;;;5046160;28;20241;-82
2022/12/07 15:17:36;;;;;;;7.67;1.97;;;;;;;;;;5045516;28;20204;-82